sensor_id;sensor_type;location;lat;lon;timestamp;pressure;altitude;pressure_sealevel;temperature
41593;BMP180;28026;48.562;14.440;2023-04-20T00:02:16;93621.00;;;13.10
41593;BMP180;28026;48.562;14.440;2023-04-20T00:04:46;93617.00;;;13.10
41593;BMP180;28026;48.562;14.440;2023-04-20T00:07:17;93609.00;;;13.00
41593;BMP180;28026;48.562;14.440;2023-04-20T00:09:48;93606.00;;;13.00
41593;BMP180;28026;48.562;14.440;2023-04-20T00:12:19;93595.00;;;13.00
41593;BMP180;28026;48.562;14.440;2023-04-20T00:14:50;93591.00;;;13.00
41593;BMP180;28026;48.562;14.440;2023-04-20T00:17:21;93588.00;;;12.90
41593;BMP180;28026;48.562;14.440;2023-04-20T00:19:52;93591.00;;;12.90
41593;BMP180;28026;48.562;14.440;2023-04-20T00:22:22;93598.00;;;12.90
41593;BMP180;28026;48.562;14.440;2023-04-20T00:24:54;93606.00;;;12.90
41593;BMP180;28026;48.562;14.440;2023-04-20T00:27:25;93601.00;;;12.90
41593;BMP180;28026;48.562;14.440;2023-04-20T00:29:56;93604.00;;;12.80
41593;BMP180;28026;48.562;14.440;2023-04-20T00:32:27;93592.00;;;12.80
41593;BMP180;28026;48.562;14.440;2023-04-20T00:34:59;93591.00;;;12.80
41593;BMP180;28026;48.562;14.440;2023-04-20T00:37:30;93593.00;;;12.80
41593;BMP180;28026;48.562;14.440;2023-04-20T00:40:01;93593.00;;;12.80
41593;BMP180;28026;48.562;14.440;2023-04-20T00:42:32;93586.00;;;12.80
41593;BMP180;28026;48.562;14.440;2023-04-20T00:45:03;93594.00;;;12.80
41593;BMP180;28026;48.562;14.440;2023-04-20T00:47:34;93585.00;;;12.70
41593;BMP180;28026;48.562;14.440;2023-04-20T00:50:06;93586.00;;;12.80
41593;BMP180;28026;48.562;14.440;2023-04-20T00:52:38;93591.00;;;12.80
41593;BMP180;28026;48.562;14.440;2023-04-20T00:55:11;93584.00;;;12.70
41593;BMP180;28026;48.562;14.440;2023-04-20T00:57:42;93588.00;;;12.70
41593;BMP180;28026;48.562;14.440;2023-04-20T01:00:14;93596.00;;;12.70
41593;BMP180;28026;48.562;14.440;2023-04-20T01:02:45;93590.00;;;12.70
41593;BMP180;28026;48.562;14.440;2023-04-20T01:05:15;93586.00;;;12.70
41593;BMP180;28026;48.562;14.440;2023-04-20T01:07:48;93586.00;;;12.70
41593;BMP180;28026;48.562;14.440;2023-04-20T01:10:18;93583.00;;;12.60
41593;BMP180;28026;48.562;14.440;2023-04-20T01:12:49;93576.00;;;12.60
41593;BMP180;28026;48.562;14.440;2023-04-20T01:15:20;93588.00;;;12.50
41593;BMP180;28026;48.562;14.440;2023-04-20T01:17:51;93588.00;;;12.50
41593;BMP180;28026;48.562;14.440;2023-04-20T01:20:22;93579.00;;;12.50
41593;BMP180;28026;48.562;14.440;2023-04-20T01:22:54;93584.00;;;12.50
41593;BMP180;28026;48.562;14.440;2023-04-20T01:25:24;93583.00;;;12.50
41593;BMP180;28026;48.562;14.440;2023-04-20T01:27:55;93579.00;;;12.50
41593;BMP180;28026;48.562;14.440;2023-04-20T01:30:27;93579.00;;;12.50
41593;BMP180;28026;48.562;14.440;2023-04-20T01:32:58;93576.00;;;12.50
41593;BMP180;28026;48.562;14.440;2023-04-20T01:35:29;93567.00;;;12.50
41593;BMP180;28026;48.562;14.440;2023-04-20T01:38:00;93561.00;;;12.50
41593;BMP180;28026;48.562;14.440;2023-04-20T01:40:30;93563.00;;;12.50
41593;BMP180;28026;48.562;14.440;2023-04-20T01:43:01;93565.00;;;12.40
41593;BMP180;28026;48.562;14.440;2023-04-20T01:45:32;93559.00;;;12.40
41593;BMP180;28026;48.562;14.440;2023-04-20T01:48:03;93555.00;;;12.30
41593;BMP180;28026;48.562;14.440;2023-04-20T01:50:34;93548.00;;;12.30
41593;BMP180;28026;48.562;14.440;2023-04-20T01:53:04;93545.00;;;12.30
41593;BMP180;28026;48.562;14.440;2023-04-20T01:55:35;93536.00;;;12.20
41593;BMP180;28026;48.562;14.440;2023-04-20T01:58:06;93545.00;;;12.10
41593;BMP180;28026;48.562;14.440;2023-04-20T02:00:37;93549.00;;;12.00
41593;BMP180;28026;48.562;14.440;2023-04-20T02:03:07;93553.00;;;12.00
41593;BMP180;28026;48.562;14.440;2023-04-20T02:05:38;93550.00;;;11.90
41593;BMP180;28026;48.562;14.440;2023-04-20T02:08:09;93548.00;;;11.80
41593;BMP180;28026;48.562;14.440;2023-04-20T02:10:40;93548.00;;;11.70
41593;BMP180;28026;48.562;14.440;2023-04-20T02:13:11;93549.00;;;11.70
41593;BMP180;28026;48.562;14.440;2023-04-20T02:15:42;93538.00;;;11.60
41593;BMP180;28026;48.562;14.440;2023-04-20T02:18:12;93543.00;;;11.60
41593;BMP180;28026;48.562;14.440;2023-04-20T02:20:46;93542.00;;;11.60
41593;BMP180;28026;48.562;14.440;2023-04-20T02:23:17;93541.00;;;11.50
41593;BMP180;28026;48.562;14.440;2023-04-20T02:25:47;93536.00;;;11.50
41593;BMP180;28026;48.562;14.440;2023-04-20T02:28:18;93552.00;;;11.50
41593;BMP180;28026;48.562;14.440;2023-04-20T02:30:49;93554.00;;;11.50
41593;BMP180;28026;48.562;14.440;2023-04-20T02:33:20;93543.00;;;11.50
41593;BMP180;28026;48.562;14.440;2023-04-20T02:35:51;93543.00;;;11.50
41593;BMP180;28026;48.562;14.440;2023-04-20T02:38:22;93533.00;;;11.50
41593;BMP180;28026;48.562;14.440;2023-04-20T02:40:53;93542.00;;;11.50
41593;BMP180;28026;48.562;14.440;2023-04-20T02:43:24;93540.00;;;11.50
41593;BMP180;28026;48.562;14.440;2023-04-20T02:45:55;93535.00;;;11.40
41593;BMP180;28026;48.562;14.440;2023-04-20T02:48:25;93538.00;;;11.40
41593;BMP180;28026;48.562;14.440;2023-04-20T02:50:56;93530.00;;;11.30
41593;BMP180;28026;48.562;14.440;2023-04-20T02:53:27;93522.00;;;11.30
41593;BMP180;28026;48.562;14.440;2023-04-20T02:55:57;93522.00;;;11.30
41593;BMP180;28026;48.562;14.440;2023-04-20T02:58:28;93518.00;;;11.20
41593;BMP180;28026;48.562;14.440;2023-04-20T03:01:00;93520.00;;;11.10
41593;BMP180;28026;48.562;14.440;2023-04-20T03:03:31;93505.00;;;11.10
41593;BMP180;28026;48.562;14.440;2023-04-20T03:06:02;93499.00;;;11.00
41593;BMP180;28026;48.562;14.440;2023-04-20T03:08:33;93504.00;;;10.90
41593;BMP180;28026;48.562;14.440;2023-04-20T03:11:04;93501.00;;;10.90
41593;BMP180;28026;48.562;14.440;2023-04-20T03:13:35;93506.00;;;10.90
41593;BMP180;28026;48.562;14.440;2023-04-20T03:16:06;93499.00;;;10.80
41593;BMP180;28026;48.562;14.440;2023-04-20T03:18:37;93507.00;;;10.80
41593;BMP180;28026;48.562;14.440;2023-04-20T03:21:07;93502.00;;;10.70
41593;BMP180;28026;48.562;14.440;2023-04-20T03:23:38;93491.00;;;10.60
41593;BMP180;28026;48.562;14.440;2023-04-20T03:26:09;93493.00;;;10.60
41593;BMP180;28026;48.562;14.440;2023-04-20T03:28:43;93500.00;;;10.50
41593;BMP180;28026;48.562;14.440;2023-04-20T03:31:13;93503.00;;;10.40
41593;BMP180;28026;48.562;14.440;2023-04-20T03:33:44;93493.00;;;10.40
41593;BMP180;28026;48.562;14.440;2023-04-20T03:36:15;93489.00;;;10.40
41593;BMP180;28026;48.562;14.440;2023-04-20T03:38:46;93493.00;;;10.40
41593;BMP180;28026;48.562;14.440;2023-04-20T03:41:17;93483.00;;;10.30
41593;BMP180;28026;48.562;14.440;2023-04-20T03:43:47;93483.00;;;10.20
41593;BMP180;28026;48.562;14.440;2023-04-20T03:46:18;93485.00;;;10.20
41593;BMP180;28026;48.562;14.440;2023-04-20T03:48:49;93491.00;;;10.20
41593;BMP180;28026;48.562;14.440;2023-04-20T03:51:20;93489.00;;;10.20
41593;BMP180;28026;48.562;14.440;2023-04-20T03:53:51;93495.00;;;10.10
41593;BMP180;28026;48.562;14.440;2023-04-20T03:56:21;93499.00;;;10.10
41593;BMP180;28026;48.562;14.440;2023-04-20T03:58:52;93496.00;;;10.10
41593;BMP180;28026;48.562;14.440;2023-04-20T04:01:23;93484.00;;;10.10
41593;BMP180;28026;48.562;14.440;2023-04-20T04:03:53;93495.00;;;10.10
41593;BMP180;28026;48.562;14.440;2023-04-20T04:06:24;93487.00;;;10.10
41593;BMP180;28026;48.562;14.440;2023-04-20T04:08:56;93487.00;;;10.10
41593;BMP180;28026;48.562;14.440;2023-04-20T04:11:27;93484.00;;;10.10
41593;BMP180;28026;48.562;14.440;2023-04-20T04:13:59;93475.00;;;10.10
41593;BMP180;28026;48.562;14.440;2023-04-20T04:16:30;93479.00;;;10.10
41593;BMP180;28026;48.562;14.440;2023-04-20T04:19:01;93478.00;;;10.00
41593;BMP180;28026;48.562;14.440;2023-04-20T04:21:33;93468.00;;;10.00
41593;BMP180;28026;48.562;14.440;2023-04-20T04:24:04;93474.00;;;10.00
41593;BMP180;28026;48.562;14.440;2023-04-20T04:26:35;93473.00;;;9.90
41593;BMP180;28026;48.562;14.440;2023-04-20T04:29:06;93476.00;;;9.90
41593;BMP180;28026;48.562;14.440;2023-04-20T04:31:36;93477.00;;;10.00
41593;BMP180;28026;48.562;14.440;2023-04-20T04:34:07;93478.00;;;10.00
41593;BMP180;28026;48.562;14.440;2023-04-20T04:36:38;93472.00;;;10.00
41593;BMP180;28026;48.562;14.440;2023-04-20T04:39:09;93473.00;;;9.90
41593;BMP180;28026;48.562;14.440;2023-04-20T04:41:40;93471.00;;;9.90
41593;BMP180;28026;48.562;14.440;2023-04-20T04:44:11;93475.00;;;9.90
41593;BMP180;28026;48.562;14.440;2023-04-20T04:46:42;93482.00;;;9.90
41593;BMP180;28026;48.562;14.440;2023-04-20T04:49:16;93476.00;;;9.90
41593;BMP180;28026;48.562;14.440;2023-04-20T04:51:47;93482.00;;;9.80
41593;BMP180;28026;48.562;14.440;2023-04-20T04:54:18;93486.00;;;9.90
41593;BMP180;28026;48.562;14.440;2023-04-20T04:56:49;93488.00;;;9.80
41593;BMP180;28026;48.562;14.440;2023-04-20T04:59:20;93481.00;;;9.80
41593;BMP180;28026;48.562;14.440;2023-04-20T05:01:50;93484.00;;;9.80
41593;BMP180;28026;48.562;14.440;2023-04-20T05:04:21;93476.00;;;9.80
41593;BMP180;28026;48.562;14.440;2023-04-20T05:06:52;93486.00;;;9.80
41593;BMP180;28026;48.562;14.440;2023-04-20T05:09:23;93481.00;;;9.90
41593;BMP180;28026;48.562;14.440;2023-04-20T05:11:54;93482.00;;;9.80
41593;BMP180;28026;48.562;14.440;2023-04-20T05:14:24;93482.00;;;9.80
41593;BMP180;28026;48.562;14.440;2023-04-20T05:16:56;93479.00;;;9.80
41593;BMP180;28026;48.562;14.440;2023-04-20T05:19:28;93488.00;;;9.80
41593;BMP180;28026;48.562;14.440;2023-04-20T05:21:59;93493.00;;;9.80
41593;BMP180;28026;48.562;14.440;2023-04-20T05:24:29;93493.00;;;9.80
41593;BMP180;28026;48.562;14.440;2023-04-20T05:27:00;93478.00;;;9.70
41593;BMP180;28026;48.562;14.440;2023-04-20T05:29:32;93486.00;;;9.70
41593;BMP180;28026;48.562;14.440;2023-04-20T05:32:03;93500.00;;;9.70
41593;BMP180;28026;48.562;14.440;2023-04-20T05:34:34;93496.00;;;9.70
41593;BMP180;28026;48.562;14.440;2023-04-20T05:37:05;93494.00;;;9.70
41593;BMP180;28026;48.562;14.440;2023-04-20T05:39:36;93495.00;;;9.80
41593;BMP180;28026;48.562;14.440;2023-04-20T05:42:07;93499.00;;;9.70
41593;BMP180;28026;48.562;14.440;2023-04-20T05:44:38;93503.00;;;9.70
41593;BMP180;28026;48.562;14.440;2023-04-20T05:47:10;93499.00;;;9.70
41593;BMP180;28026;48.562;14.440;2023-04-20T05:49:41;93496.00;;;9.70
41593;BMP180;28026;48.562;14.440;2023-04-20T05:52:12;93499.00;;;9.70
41593;BMP180;28026;48.562;14.440;2023-04-20T05:54:43;93500.00;;;9.70
41593;BMP180;28026;48.562;14.440;2023-04-20T05:57:13;93502.00;;;9.80
41593;BMP180;28026;48.562;14.440;2023-04-20T05:59:44;93498.00;;;9.80
41593;BMP180;28026;48.562;14.440;2023-04-20T06:02:16;93498.00;;;9.90
41593;BMP180;28026;48.562;14.440;2023-04-20T06:04:46;93493.00;;;9.90
41593;BMP180;28026;48.562;14.440;2023-04-20T06:07:17;93498.00;;;10.00
41593;BMP180;28026;48.562;14.440;2023-04-20T06:09:48;93487.00;;;10.00
41593;BMP180;28026;48.562;14.440;2023-04-20T06:12:19;93488.00;;;10.00
41593;BMP180;28026;48.562;14.440;2023-04-20T06:14:49;93495.00;;;10.10
41593;BMP180;28026;48.562;14.440;2023-04-20T06:17:20;93493.00;;;10.10
41593;BMP180;28026;48.562;14.440;2023-04-20T06:19:51;93486.00;;;10.10
41593;BMP180;28026;48.562;14.440;2023-04-20T06:22:22;93502.00;;;10.10
41593;BMP180;28026;48.562;14.440;2023-04-20T06:24:53;93502.00;;;10.20
41593;BMP180;28026;48.562;14.440;2023-04-20T06:27:23;93501.00;;;10.20
41593;BMP180;28026;48.562;14.440;2023-04-20T06:29:54;93491.00;;;10.30
41593;BMP180;28026;48.562;14.440;2023-04-20T06:32:25;93498.00;;;10.40
41593;BMP180;28026;48.562;14.440;2023-04-20T06:34:56;93504.00;;;10.40
41593;BMP180;28026;48.562;14.440;2023-04-20T06:37:26;93502.00;;;10.50
41593;BMP180;28026;48.562;14.440;2023-04-20T06:39:57;93508.00;;;10.60
41593;BMP180;28026;48.562;14.440;2023-04-20T06:42:28;93511.00;;;10.60
41593;BMP180;28026;48.562;14.440;2023-04-20T06:44:59;93506.00;;;10.70
41593;BMP180;28026;48.562;14.440;2023-04-20T06:47:30;93506.00;;;10.70
41593;BMP180;28026;48.562;14.440;2023-04-20T06:50:03;93504.00;;;10.80
41593;BMP180;28026;48.562;14.440;2023-04-20T06:52:39;93513.00;;;10.80
41593;BMP180;28026;48.562;14.440;2023-04-20T06:55:10;93512.00;;;10.90
41593;BMP180;28026;48.562;14.440;2023-04-20T06:57:41;93513.00;;;11.00
41593;BMP180;28026;48.562;14.440;2023-04-20T07:00:13;93510.00;;;11.10
41593;BMP180;28026;48.562;14.440;2023-04-20T07:02:46;93509.00;;;11.20
41593;BMP180;28026;48.562;14.440;2023-04-20T07:05:19;93513.00;;;11.30
41593;BMP180;28026;48.562;14.440;2023-04-20T07:07:50;93514.00;;;11.30
41593;BMP180;28026;48.562;14.440;2023-04-20T07:10:20;93513.00;;;11.40
41593;BMP180;28026;48.562;14.440;2023-04-20T07:12:51;93513.00;;;11.40
41593;BMP180;28026;48.562;14.440;2023-04-20T07:15:22;93507.00;;;11.50
41593;BMP180;28026;48.562;14.440;2023-04-20T07:17:53;93511.00;;;11.50
41593;BMP180;28026;48.562;14.440;2023-04-20T07:20:24;93512.00;;;11.50
41593;BMP180;28026;48.562;14.440;2023-04-20T07:22:54;93515.00;;;11.60
41593;BMP180;28026;48.562;14.440;2023-04-20T07:25:25;93519.00;;;11.60
41593;BMP180;28026;48.562;14.440;2023-04-20T07:27:56;93512.00;;;11.70
41593;BMP180;28026;48.562;14.440;2023-04-20T07:30:27;93507.00;;;11.80
41593;BMP180;28026;48.562;14.440;2023-04-20T07:32:58;93521.00;;;11.90
41593;BMP180;28026;48.562;14.440;2023-04-20T07:35:29;93519.00;;;12.00
41593;BMP180;28026;48.562;14.440;2023-04-20T07:38:00;93506.00;;;12.20
41593;BMP180;28026;48.562;14.440;2023-04-20T07:40:30;93510.00;;;12.30
41593;BMP180;28026;48.562;14.440;2023-04-20T07:43:01;93512.00;;;12.40
41593;BMP180;28026;48.562;14.440;2023-04-20T07:45:32;93511.00;;;12.60
41593;BMP180;28026;48.562;14.440;2023-04-20T07:48:03;93511.00;;;12.70
41593;BMP180;28026;48.562;14.440;2023-04-20T07:50:34;93518.00;;;13.00
41593;BMP180;28026;48.562;14.440;2023-04-20T07:53:05;93524.00;;;13.20
41593;BMP180;28026;48.562;14.440;2023-04-20T07:55:36;93516.00;;;13.30
41593;BMP180;28026;48.562;14.440;2023-04-20T07:58:07;93514.00;;;13.50
41593;BMP180;28026;48.562;14.440;2023-04-20T08:00:38;93517.00;;;13.70
41593;BMP180;28026;48.562;14.440;2023-04-20T08:03:09;93518.00;;;13.80
41593;BMP180;28026;48.562;14.440;2023-04-20T08:05:39;93515.00;;;14.00
41593;BMP180;28026;48.562;14.440;2023-04-20T08:08:10;93500.00;;;14.20
41593;BMP180;28026;48.562;14.440;2023-04-20T08:10:41;93507.00;;;14.40
41593;BMP180;28026;48.562;14.440;2023-04-20T08:13:12;93509.00;;;14.70
41593;BMP180;28026;48.562;14.440;2023-04-20T08:15:43;93504.00;;;14.90
41593;BMP180;28026;48.562;14.440;2023-04-20T08:18:13;93499.00;;;15.10
41593;BMP180;28026;48.562;14.440;2023-04-20T08:20:44;93511.00;;;15.30
41593;BMP180;28026;48.562;14.440;2023-04-20T08:23:15;93497.00;;;15.50
41593;BMP180;28026;48.562;14.440;2023-04-20T08:25:46;93503.00;;;15.90
41593;BMP180;28026;48.562;14.440;2023-04-20T08:28:17;93500.00;;;16.10
41593;BMP180;28026;48.562;14.440;2023-04-20T08:30:49;93501.00;;;16.40
41593;BMP180;28026;48.562;14.440;2023-04-20T08:33:20;93496.00;;;16.60
41593;BMP180;28026;48.562;14.440;2023-04-20T08:35:51;93489.00;;;16.80
41593;BMP180;28026;48.562;14.440;2023-04-20T08:38:22;93492.00;;;17.00
41593;BMP180;28026;48.562;14.440;2023-04-20T08:40:53;93486.00;;;17.30
41593;BMP180;28026;48.562;14.440;2023-04-20T08:43:24;93490.00;;;17.50
41593;BMP180;28026;48.562;14.440;2023-04-20T08:46:00;93485.00;;;17.60
41593;BMP180;28026;48.562;14.440;2023-04-20T08:48:35;93480.00;;;17.60
41593;BMP180;28026;48.562;14.440;2023-04-20T08:51:06;93477.00;;;17.70
41593;BMP180;28026;48.562;14.440;2023-04-20T08:53:37;93474.00;;;17.80
41593;BMP180;28026;48.562;14.440;2023-04-20T08:56:08;93471.00;;;17.80
41593;BMP180;28026;48.562;14.440;2023-04-20T08:58:39;93488.00;;;17.90
41593;BMP180;28026;48.562;14.440;2023-04-20T09:01:12;93485.00;;;18.00
41593;BMP180;28026;48.562;14.440;2023-04-20T09:03:44;93477.00;;;18.10
41593;BMP180;28026;48.562;14.440;2023-04-20T09:06:16;93476.00;;;18.30
41593;BMP180;28026;48.562;14.440;2023-04-20T09:08:48;93475.00;;;18.30
41593;BMP180;28026;48.562;14.440;2023-04-20T09:14:09;93471.00;;;18.50
41593;BMP180;28026;48.562;14.440;2023-04-20T09:16:49;93480.00;;;18.70
41593;BMP180;28026;48.562;14.440;2023-04-20T09:19:28;93475.00;;;18.90
41593;BMP180;28026;48.562;14.440;2023-04-20T09:21:59;93481.00;;;19.10
41593;BMP180;28026;48.562;14.440;2023-04-20T09:24:37;93484.00;;;19.40
41593;BMP180;28026;48.562;14.440;2023-04-20T09:27:16;93475.00;;;19.80
41593;BMP180;28026;48.562;14.440;2023-04-20T09:29:59;93474.00;;;19.80
41593;BMP180;28026;48.562;14.440;2023-04-20T09:32:33;93471.00;;;19.60
41593;BMP180;28026;48.562;14.440;2023-04-20T09:35:05;93461.00;;;19.40
41593;BMP180;28026;48.562;14.440;2023-04-20T09:37:46;93467.00;;;19.40
41593;BMP180;28026;48.562;14.440;2023-04-20T09:40:18;93466.00;;;19.50
41593;BMP180;28026;48.562;14.440;2023-04-20T09:42:52;93468.00;;;19.50
41593;BMP180;28026;48.562;14.440;2023-04-20T09:45:24;93461.00;;;19.40
41593;BMP180;28026;48.562;14.440;2023-04-20T09:47:56;93466.00;;;19.30
41593;BMP180;28026;48.562;14.440;2023-04-20T09:50:27;93468.00;;;19.30
41593;BMP180;28026;48.562;14.440;2023-04-20T09:53:00;93465.00;;;19.50
41593;BMP180;28026;48.562;14.440;2023-04-20T09:55:32;93459.00;;;19.50
41593;BMP180;28026;48.562;14.440;2023-04-20T09:58:03;93463.00;;;19.50
41593;BMP180;28026;48.562;14.440;2023-04-20T10:00:34;93460.00;;;19.70
41593;BMP180;28026;48.562;14.440;2023-04-20T10:03:05;93455.00;;;19.90
41593;BMP180;28026;48.562;14.440;2023-04-20T10:05:38;93455.00;;;20.20
41593;BMP180;28026;48.562;14.440;2023-04-20T10:08:09;93454.00;;;20.30
41593;BMP180;28026;48.562;14.440;2023-04-20T10:10:48;93460.00;;;20.30
41593;BMP180;28026;48.562;14.440;2023-04-20T10:13:20;93451.00;;;20.40
41593;BMP180;28026;48.562;14.440;2023-04-20T10:16:02;93456.00;;;20.30
41593;BMP180;28026;48.562;14.440;2023-04-20T10:18:33;93455.00;;;20.30
41593;BMP180;28026;48.562;14.440;2023-04-20T10:21:07;93455.00;;;20.20
41593;BMP180;28026;48.562;14.440;2023-04-20T10:23:59;93461.00;;;20.00
41593;BMP180;28026;48.562;14.440;2023-04-20T10:26:42;93458.00;;;20.00
41593;BMP180;28026;48.562;14.440;2023-04-20T10:29:23;93453.00;;;19.90
41593;BMP180;28026;48.562;14.440;2023-04-20T10:31:55;93455.00;;;19.70
41593;BMP180;28026;48.562;14.440;2023-04-20T10:34:30;93456.00;;;19.50
41593;BMP180;28026;48.562;14.440;2023-04-20T10:39:45;93447.00;;;19.70
41593;BMP180;28026;48.562;14.440;2023-04-20T10:42:17;93448.00;;;19.90
41593;BMP180;28026;48.562;14.440;2023-04-20T10:44:49;93440.00;;;20.10
41593;BMP180;28026;48.562;14.440;2023-04-20T10:47:31;93445.00;;;20.20
41593;BMP180;28026;48.562;14.440;2023-04-20T10:50:11;93435.00;;;20.40
41593;BMP180;28026;48.562;14.440;2023-04-20T10:52:43;93423.00;;;20.40
41593;BMP180;28026;48.562;14.440;2023-04-20T10:55:23;93424.00;;;20.50
41593;BMP180;28026;48.562;14.440;2023-04-20T10:57:55;93418.00;;;20.60
41593;BMP180;28026;48.562;14.440;2023-04-20T11:00:27;93427.00;;;20.70
41593;BMP180;28026;48.562;14.440;2023-04-20T11:02:58;93424.00;;;20.80
41593;BMP180;28026;48.562;14.440;2023-04-20T11:05:29;93417.00;;;20.90
41593;BMP180;28026;48.562;14.440;2023-04-20T11:08:00;93421.00;;;21.00
41593;BMP180;28026;48.562;14.440;2023-04-20T11:10:39;93410.00;;;21.00
41593;BMP180;28026;48.562;14.440;2023-04-20T11:13:21;93414.00;;;20.90
41593;BMP180;28026;48.562;14.440;2023-04-20T11:15:54;93414.00;;;20.80
41593;BMP180;28026;48.562;14.440;2023-04-20T11:18:26;93415.00;;;20.80
41593;BMP180;28026;48.562;14.440;2023-04-20T11:20:57;93424.00;;;20.70
41593;BMP180;28026;48.562;14.440;2023-04-20T11:23:36;93414.00;;;20.90
41593;BMP180;28026;48.562;14.440;2023-04-20T11:26:07;93408.00;;;21.20
41593;BMP180;28026;48.562;14.440;2023-04-20T11:28:52;93408.00;;;21.70
41593;BMP180;28026;48.562;14.440;2023-04-20T11:31:23;93412.00;;;21.90
41593;BMP180;28026;48.562;14.440;2023-04-20T11:33:56;93413.00;;;22.10
41593;BMP180;28026;48.562;14.440;2023-04-20T11:36:27;93397.00;;;22.10
41593;BMP180;28026;48.562;14.440;2023-04-20T11:39:08;93413.00;;;22.20
41593;BMP180;28026;48.562;14.440;2023-04-20T11:41:39;93404.00;;;22.30
41593;BMP180;28026;48.562;14.440;2023-04-20T11:44:11;93403.00;;;22.30
41593;BMP180;28026;48.562;14.440;2023-04-20T11:46:44;93399.00;;;22.30
41593;BMP180;28026;48.562;14.440;2023-04-20T11:49:15;93404.00;;;22.40
41593;BMP180;28026;48.562;14.440;2023-04-20T11:51:46;93397.00;;;22.60
41593;BMP180;28026;48.562;14.440;2023-04-20T11:54:17;93400.00;;;22.80
41593;BMP180;28026;48.562;14.440;2023-04-20T11:56:48;93401.00;;;23.10
41593;BMP180;28026;48.562;14.440;2023-04-20T11:59:19;93398.00;;;23.30
41593;BMP180;28026;48.562;14.440;2023-04-20T12:01:50;93402.00;;;23.50
41593;BMP180;28026;48.562;14.440;2023-04-20T12:04:21;93414.00;;;23.40
41593;BMP180;28026;48.562;14.440;2023-04-20T12:06:52;93410.00;;;23.00
41593;BMP180;28026;48.562;14.440;2023-04-20T12:09:24;93403.00;;;22.90
41593;BMP180;28026;48.562;14.440;2023-04-20T12:11:55;93399.00;;;23.00
41593;BMP180;28026;48.562;14.440;2023-04-20T12:14:27;93398.00;;;23.10
41593;BMP180;28026;48.562;14.440;2023-04-20T12:16:58;93397.00;;;23.20
41593;BMP180;28026;48.562;14.440;2023-04-20T12:19:30;93400.00;;;23.20
41593;BMP180;28026;48.562;14.440;2023-04-20T12:22:01;93391.00;;;23.30
41593;BMP180;28026;48.562;14.440;2023-04-20T12:24:32;93387.00;;;23.40
41593;BMP180;28026;48.562;14.440;2023-04-20T12:27:03;93385.00;;;23.20
41593;BMP180;28026;48.562;14.440;2023-04-20T12:29:35;93383.00;;;22.90
41593;BMP180;28026;48.562;14.440;2023-04-20T12:32:06;93383.00;;;22.90
41593;BMP180;28026;48.562;14.440;2023-04-20T12:34:36;93389.00;;;23.10
41593;BMP180;28026;48.562;14.440;2023-04-20T12:37:07;93381.00;;;23.10
41593;BMP180;28026;48.562;14.440;2023-04-20T12:39:38;93379.00;;;23.10
41593;BMP180;28026;48.562;14.440;2023-04-20T12:42:09;93387.00;;;23.00
41593;BMP180;28026;48.562;14.440;2023-04-20T12:44:40;93385.00;;;23.00
41593;BMP180;28026;48.562;14.440;2023-04-20T12:47:11;93384.00;;;23.00
41593;BMP180;28026;48.562;14.440;2023-04-20T12:49:42;93382.00;;;23.00
41593;BMP180;28026;48.562;14.440;2023-04-20T12:52:13;93378.00;;;23.00
41593;BMP180;28026;48.562;14.440;2023-04-20T12:54:44;93381.00;;;23.20
41593;BMP180;28026;48.562;14.440;2023-04-20T12:57:15;93378.00;;;23.60
41593;BMP180;28026;48.562;14.440;2023-04-20T12:59:46;93379.00;;;23.60
41593;BMP180;28026;48.562;14.440;2023-04-20T13:02:18;93377.00;;;23.50
41593;BMP180;28026;48.562;14.440;2023-04-20T13:04:49;93382.00;;;23.20
41593;BMP180;28026;48.562;14.440;2023-04-20T13:07:20;93376.00;;;23.20
41593;BMP180;28026;48.562;14.440;2023-04-20T13:09:51;93372.00;;;23.30
41593;BMP180;28026;48.562;14.440;2023-04-20T13:12:21;93375.00;;;23.40
41593;BMP180;28026;48.562;14.440;2023-04-20T13:14:52;93376.00;;;23.30
41593;BMP180;28026;48.562;14.440;2023-04-20T13:17:23;93378.00;;;23.20
41593;BMP180;28026;48.562;14.440;2023-04-20T13:19:54;93376.00;;;23.20
41593;BMP180;28026;48.562;14.440;2023-04-20T13:22:25;93375.00;;;23.20
41593;BMP180;28026;48.562;14.440;2023-04-20T13:24:55;93381.00;;;23.20
41593;BMP180;28026;48.562;14.440;2023-04-20T13:27:26;93367.00;;;23.30
41593;BMP180;28026;48.562;14.440;2023-04-20T13:29:57;93370.00;;;23.40
41593;BMP180;28026;48.562;14.440;2023-04-20T13:32:31;93370.00;;;23.30
41593;BMP180;28026;48.562;14.440;2023-04-20T13:35:02;93380.00;;;23.10
41593;BMP180;28026;48.562;14.440;2023-04-20T13:37:33;93364.00;;;23.00
41593;BMP180;28026;48.562;14.440;2023-04-20T13:40:05;93365.00;;;23.00
41593;BMP180;28026;48.562;14.440;2023-04-20T13:42:37;93370.00;;;23.00
41593;BMP180;28026;48.562;14.440;2023-04-20T13:45:08;93363.00;;;23.00
41593;BMP180;28026;48.562;14.440;2023-04-20T13:47:40;93370.00;;;23.10
41593;BMP180;28026;48.562;14.440;2023-04-20T13:50:11;93370.00;;;23.10
41593;BMP180;28026;48.562;14.440;2023-04-20T13:52:41;93366.00;;;23.00
41593;BMP180;28026;48.562;14.440;2023-04-20T13:55:12;93358.00;;;23.00
41593;BMP180;28026;48.562;14.440;2023-04-20T13:57:43;93358.00;;;22.90
41593;BMP180;28026;48.562;14.440;2023-04-20T14:00:14;93362.00;;;22.70
41593;BMP180;28026;48.562;14.440;2023-04-20T14:02:46;93354.00;;;22.60
41593;BMP180;28026;48.562;14.440;2023-04-20T14:05:17;93360.00;;;22.60
41593;BMP180;28026;48.562;14.440;2023-04-20T14:07:47;93366.00;;;22.80
41593;BMP180;28026;48.562;14.440;2023-04-20T14:10:18;93360.00;;;22.90
41593;BMP180;28026;48.562;14.440;2023-04-20T14:12:49;93362.00;;;23.00
41593;BMP180;28026;48.562;14.440;2023-04-20T14:15:20;93353.00;;;23.00
41593;BMP180;28026;48.562;14.440;2023-04-20T14:17:51;93364.00;;;23.20
41593;BMP180;28026;48.562;14.440;2023-04-20T14:20:22;93363.00;;;23.10
41593;BMP180;28026;48.562;14.440;2023-04-20T14:22:53;93366.00;;;23.10
41593;BMP180;28026;48.562;14.440;2023-04-20T14:25:23;93360.00;;;23.10
41593;BMP180;28026;48.562;14.440;2023-04-20T14:27:54;93363.00;;;23.10
41593;BMP180;28026;48.562;14.440;2023-04-20T14:30:25;93360.00;;;23.00